createdAt,value
2018-04-29T00:00:53.585Z,16.40
2018-04-29T00:03:21.904Z,16.30
2018-04-29T00:05:50.004Z,16.30
2018-04-29T00:08:18.130Z,16.20
2018-04-29T00:10:46.247Z,16.20
2018-04-29T00:13:14.346Z,16.20
2018-04-29T00:15:42.456Z,16.20
2018-04-29T00:18:10.543Z,16.20
2018-04-29T00:20:38.626Z,16.20
2018-04-29T00:23:06.943Z,16.10
2018-04-29T00:25:35.063Z,16.10
2018-04-29T00:28:03.224Z,16.00
2018-04-29T00:30:31.325Z,15.90
2018-04-29T00:32:59.551Z,15.80
2018-04-29T00:35:27.786Z,15.80
2018-04-29T00:37:55.889Z,15.70
2018-04-29T00:40:24.020Z,15.80
2018-04-29T00:42:52.170Z,15.80
2018-04-29T00:45:20.443Z,15.80
2018-04-29T00:47:48.572Z,15.80
2018-04-29T00:50:16.695Z,15.70
2018-04-29T00:52:44.804Z,15.60
2018-04-29T00:55:12.989Z,15.70
2018-04-29T00:57:41.064Z,15.90
2018-04-29T01:00:09.192Z,15.90
2018-04-29T01:02:37.321Z,16.00
2018-04-29T01:05:05.418Z,15.90
2018-04-29T01:07:33.707Z,16.00
2018-04-29T01:10:01.827Z,15.90
2018-04-29T01:12:30.671Z,15.90
2018-04-29T01:14:58.762Z,15.90
2018-04-29T01:17:26.902Z,15.80
2018-04-29T01:19:55.014Z,15.80
2018-04-29T01:22:23.197Z,15.80
2018-04-29T01:24:51.320Z,15.70
2018-04-29T01:27:19.424Z,15.80
2018-04-29T01:29:47.601Z,15.70
2018-04-29T01:32:15.766Z,15.60
2018-04-29T01:34:43.916Z,15.70
2018-04-29T01:37:12.044Z,15.70
2018-04-29T01:39:40.207Z,15.60
2018-04-29T01:42:08.337Z,15.40
2018-04-29T01:44:36.434Z,15.40
2018-04-29T01:47:04.527Z,15.30
2018-04-29T01:49:32.646Z,15.40
2018-04-29T01:52:01.051Z,15.40
2018-04-29T01:54:29.193Z,15.30
2018-04-29T01:56:57.307Z,15.30
2018-04-29T01:59:25.491Z,15.10
2018-04-29T02:01:53.696Z,15.10
2018-04-29T02:04:21.805Z,15.20
2018-04-29T02:06:49.948Z,15.10
2018-04-29T02:09:18.472Z,14.90
2018-04-29T02:11:46.588Z,14.90
2018-04-29T02:14:14.870Z,14.90
2018-04-29T02:16:42.995Z,14.60
2018-04-29T02:19:11.119Z,14.70
2018-04-29T02:21:39.225Z,14.60
2018-04-29T02:24:07.342Z,14.50
2018-04-29T02:26:35.468Z,14.40
2018-04-29T02:29:03.622Z,14.40
2018-04-29T02:31:31.726Z,14.20
2018-04-29T02:33:59.835Z,14.10
2018-04-29T02:36:27.987Z,14.20
2018-04-29T02:38:56.102Z,14.10
2018-04-29T02:41:24.227Z,14.00
2018-04-29T02:43:52.369Z,13.90
2018-04-29T02:46:20.468Z,13.90
2018-04-29T02:48:48.616Z,13.80
2018-04-29T02:51:16.715Z,13.90
2018-04-29T02:53:44.926Z,13.90
2018-04-29T02:56:13.028Z,13.90
2018-04-29T02:58:41.174Z,13.90
2018-04-29T03:01:09.269Z,13.80
2018-04-29T03:03:37.402Z,13.70
2018-04-29T03:06:05.508Z,13.70
2018-04-29T03:08:33.631Z,13.60
2018-04-29T03:11:01.720Z,13.60
2018-04-29T03:13:30.114Z,13.60
2018-04-29T03:15:58.276Z,13.50
2018-04-29T03:18:26.387Z,13.30
2018-04-29T03:20:54.470Z,13.30
2018-04-29T03:23:22.570Z,13.30
2018-04-29T03:25:50.735Z,13.20
2018-04-29T03:28:18.824Z,13.10
2018-04-29T03:30:46.903Z,13.10
2018-04-29T03:33:14.998Z,13.10
2018-04-29T03:35:43.087Z,13.00
2018-04-29T03:38:11.204Z,13.00
2018-04-29T03:40:39.273Z,13.10
2018-04-29T03:43:07.370Z,13.20
2018-04-29T03:45:35.448Z,13.10
2018-04-29T03:48:03.638Z,13.10
2018-04-29T03:50:31.724Z,13.20
2018-04-29T03:52:59.828Z,13.10
2018-04-29T03:55:27.953Z,13.10
2018-04-29T03:58:07.830Z,13.10
2018-04-29T04:00:58.540Z,13.10
2018-04-29T04:03:38.643Z,13.00
2018-04-29T04:06:06.773Z,13.00
2018-04-29T04:08:35.053Z,13.10
2018-04-29T04:11:03.230Z,13.10
2018-04-29T04:13:31.569Z,13.00
2018-04-29T04:15:59.890Z,12.90
2018-04-29T04:18:28.133Z,12.80
2018-04-29T04:20:56.468Z,12.70
2018-04-29T04:23:24.755Z,12.60
2018-04-29T04:25:53.082Z,12.60
2018-04-29T04:28:21.650Z,12.50
2018-04-29T04:30:49.986Z,12.50
2018-04-29T04:33:18.309Z,12.50
2018-04-29T04:35:46.729Z,12.40
2018-04-29T04:38:14.968Z,12.40
2018-04-29T04:40:43.190Z,12.30
2018-04-29T04:43:11.724Z,12.30
2018-04-29T04:45:40.034Z,12.30
2018-04-29T04:48:08.372Z,12.30
2018-04-29T04:50:36.710Z,12.30
2018-04-29T04:53:05.051Z,12.40
2018-04-29T04:55:33.295Z,12.40
2018-04-29T04:58:01.734Z,12.60
2018-04-29T05:00:30.054Z,12.70
2018-04-29T05:02:58.438Z,12.80
2018-04-29T05:05:26.757Z,13.00
2018-04-29T05:07:54.905Z,13.10
2018-04-29T05:10:23.276Z,13.20
2018-04-29T05:12:51.814Z,13.20
2018-04-29T05:15:20.009Z,13.30
2018-04-29T05:17:48.284Z,13.50
2018-04-29T05:20:16.534Z,13.50
2018-04-29T05:22:44.745Z,13.70
2018-04-29T05:25:12.988Z,14.00
2018-04-29T05:27:41.284Z,14.10
2018-04-29T05:30:09.661Z,14.20
2018-04-29T05:32:38.053Z,14.60
2018-04-29T05:35:06.499Z,14.90
2018-04-29T05:37:34.708Z,15.10
2018-04-29T05:40:03.373Z,15.20
2018-04-29T05:42:32.220Z,15.50
2018-04-29T05:45:00.528Z,15.80
2018-04-29T05:47:28.759Z,16.00
2018-04-29T05:49:57.087Z,16.20
2018-04-29T05:52:25.585Z,16.30
2018-04-29T05:54:55.051Z,16.30
2018-04-29T05:57:23.437Z,16.30
2018-04-29T05:59:51.631Z,16.50
2018-04-29T06:02:19.921Z,16.60
2018-04-29T06:04:48.495Z,16.70
2018-04-29T06:07:16.689Z,16.80
2018-04-29T06:09:45.004Z,16.90
2018-04-29T06:12:13.213Z,16.90
2018-04-29T06:14:41.562Z,16.90
2018-04-29T06:17:09.813Z,17.10
2018-04-29T06:19:38.985Z,17.00
2018-04-29T06:22:07.266Z,17.00
2018-04-29T06:24:35.686Z,16.90
2018-04-29T06:27:03.979Z,17.10
2018-04-29T06:29:32.300Z,17.10
2018-04-29T06:32:00.646Z,17.20
2018-04-29T06:34:29.085Z,17.30
2018-04-29T06:36:57.221Z,17.30
2018-04-29T06:39:25.529Z,17.50
2018-04-29T06:41:53.862Z,17.50
2018-04-29T06:44:22.407Z,17.70
2018-04-29T06:46:50.779Z,17.70
2018-04-29T06:49:19.253Z,17.80
2018-04-29T06:51:47.563Z,17.90
2018-04-29T06:54:15.871Z,18.00
2018-04-29T06:56:44.226Z,18.10
2018-04-29T06:59:12.533Z,18.20
2018-04-29T07:01:40.784Z,18.10
2018-04-29T07:04:09.206Z,18.30
2018-04-29T07:06:37.437Z,18.30
2018-04-29T07:09:05.740Z,18.40
2018-04-29T07:11:34.150Z,18.40
2018-04-29T07:14:02.361Z,18.30
2018-04-29T07:16:30.626Z,18.40
2018-04-29T07:18:58.880Z,18.60
2018-04-29T07:21:27.197Z,18.60
2018-04-29T07:23:55.509Z,18.40
2018-04-29T07:26:24.139Z,18.60
2018-04-29T07:28:52.425Z,18.70
2018-04-29T07:31:20.720Z,18.70
2018-04-29T07:33:49.185Z,18.80
2018-04-29T07:36:17.488Z,18.80
2018-04-29T07:38:45.838Z,18.80
2018-04-29T07:41:14.145Z,18.80
2018-04-29T07:43:42.660Z,18.80
2018-04-29T07:46:10.876Z,18.80
2018-04-29T07:48:39.157Z,18.80
2018-04-29T07:51:07.446Z,18.80
2018-04-29T07:53:35.848Z,18.80
2018-04-29T07:56:04.250Z,18.80
2018-04-29T07:58:32.561Z,18.90
2018-04-29T08:01:00.801Z,18.90
2018-04-29T08:03:29.192Z,19.00
2018-04-29T08:05:57.499Z,19.00
2018-04-29T08:08:25.825Z,19.10
2018-04-29T08:10:54.173Z,19.10
2018-04-29T08:13:22.358Z,19.30
2018-04-29T08:15:50.655Z,19.30
2018-04-29T08:18:19.154Z,19.50
2018-04-29T08:20:47.471Z,19.40
2018-04-29T08:23:17.857Z,19.60
2018-04-29T08:25:46.269Z,19.70
2018-04-29T08:28:14.503Z,19.70
2018-04-29T08:30:42.661Z,19.80
2018-04-29T08:33:10.951Z,19.90
2018-04-29T08:35:39.402Z,19.90
2018-04-29T08:38:07.834Z,19.90
2018-04-29T08:40:36.283Z,20.00
2018-04-29T08:43:04.427Z,20.00
2018-04-29T08:45:32.603Z,19.90
2018-04-29T08:48:00.990Z,20.00
2018-04-29T08:50:29.512Z,20.00
2018-04-29T08:52:57.651Z,20.10
2018-04-29T08:55:25.922Z,20.30
2018-04-29T08:57:54.347Z,20.30
2018-04-29T09:00:22.580Z,20.40
2018-04-29T09:02:50.822Z,20.60
2018-04-29T09:05:19.293Z,20.60
2018-04-29T09:07:47.590Z,20.50
2018-04-29T09:10:15.804Z,20.60
2018-04-29T09:12:44.339Z,20.60
2018-04-29T09:15:12.543Z,20.70
2018-04-29T09:17:40.790Z,20.70
2018-04-29T09:20:09.250Z,20.70
2018-04-29T09:22:37.541Z,20.80
2018-04-29T09:25:05.839Z,21.00
2018-04-29T09:27:34.170Z,20.90
2018-04-29T09:30:02.446Z,21.00
2018-04-29T09:32:30.844Z,21.00
2018-04-29T09:34:59.191Z,21.00
2018-04-29T09:37:27.329Z,21.10
2018-04-29T09:39:55.727Z,21.00
2018-04-29T09:42:24.203Z,21.10
2018-04-29T09:44:52.608Z,21.20
2018-04-29T09:47:20.807Z,21.20
2018-04-29T09:49:49.293Z,21.20
2018-04-29T09:52:17.670Z,21.10
2018-04-29T09:54:45.956Z,21.10
2018-04-29T09:57:14.253Z,21.30
2018-04-29T09:59:42.700Z,21.40
2018-04-29T10:02:11.929Z,21.40
2018-04-29T10:04:40.673Z,21.40
2018-04-29T10:07:09.227Z,21.30
2018-04-29T10:09:37.646Z,21.30
2018-04-29T10:12:05.897Z,21.40
2018-04-29T10:14:34.312Z,21.20
2018-04-29T10:17:02.573Z,21.40
2018-04-29T10:19:30.995Z,21.40
2018-04-29T10:21:59.257Z,21.30
2018-04-29T10:24:27.732Z,21.40
2018-04-29T10:26:55.936Z,21.20
2018-04-29T10:29:24.206Z,21.10
2018-04-29T10:31:52.938Z,21.20
2018-04-29T10:34:21.203Z,21.40
2018-04-29T10:36:49.309Z,21.40
2018-04-29T10:39:17.573Z,21.40
2018-04-29T10:41:45.848Z,21.40
2018-04-29T10:44:14.158Z,21.60
2018-04-29T10:46:42.399Z,21.50
2018-04-29T10:49:10.744Z,21.40
2018-04-29T10:51:39.034Z,21.40
2018-04-29T10:54:07.429Z,21.40
2018-04-29T10:56:35.970Z,21.50
2018-04-29T10:59:04.151Z,21.60
2018-04-29T11:01:32.253Z,21.50
2018-04-29T11:04:00.486Z,21.50
2018-04-29T11:06:28.727Z,21.40
2018-04-29T11:08:56.885Z,21.40
2018-04-29T11:11:26.725Z,21.40
2018-04-29T11:13:54.875Z,21.20
2018-04-29T11:16:23.144Z,21.40
2018-04-29T11:18:52.261Z,21.10
2018-04-29T11:21:20.488Z,21.40
2018-04-29T11:23:48.849Z,21.40
2018-04-29T11:26:16.985Z,21.40
2018-04-29T11:28:45.121Z,21.40
2018-04-29T11:31:13.314Z,21.30
2018-04-29T11:33:41.689Z,21.30
2018-04-29T11:36:10.178Z,21.30
2018-04-29T11:38:38.364Z,21.20
2018-04-29T11:41:06.690Z,21.30
2018-04-29T11:43:34.932Z,21.30
2018-04-29T11:46:03.260Z,21.30
2018-04-29T11:48:31.602Z,21.50
2018-04-29T11:50:59.785Z,21.70
2018-04-29T11:53:28.006Z,21.90
2018-04-29T11:55:56.232Z,21.90
2018-04-29T11:58:24.451Z,22.10
2018-04-29T12:00:52.756Z,22.20
2018-04-29T12:03:20.996Z,22.30
2018-04-29T12:05:49.336Z,22.40
2018-04-29T12:08:17.618Z,22.30
2018-04-29T12:10:45.918Z,22.20
2018-04-29T12:13:14.254Z,22.30
2018-04-29T12:15:42.586Z,22.30
2018-04-29T12:18:10.822Z,22.40
2018-04-29T12:20:39.204Z,22.40
2018-04-29T12:23:07.352Z,22.30
2018-04-29T12:25:35.591Z,22.50
2018-04-29T12:28:03.924Z,22.50
2018-04-29T12:30:32.108Z,22.50
2018-04-29T12:33:00.300Z,22.60
2018-04-29T12:35:28.519Z,22.60
2018-04-29T12:37:56.741Z,22.50
2018-04-29T12:40:25.084Z,22.40
2018-04-29T12:42:53.322Z,22.40
2018-04-29T12:45:21.654Z,22.30
2018-04-29T12:47:49.904Z,22.40
2018-04-29T12:50:18.154Z,22.50
2018-04-29T12:52:46.544Z,22.60
2018-04-29T12:55:14.794Z,22.60
2018-04-29T12:57:42.976Z,22.60
2018-04-29T13:00:11.400Z,22.70
2018-04-29T13:02:39.500Z,22.80
2018-04-29T13:05:07.826Z,22.80
2018-04-29T13:07:36.120Z,22.80
2018-04-29T13:10:04.315Z,22.80
2018-04-29T13:12:32.585Z,22.80
2018-04-29T13:15:01.111Z,22.90
2018-04-29T13:17:29.288Z,22.90
2018-04-29T13:19:58.934Z,22.80
2018-04-29T13:22:27.223Z,23.00
2018-04-29T13:24:55.473Z,22.90
2018-04-29T13:27:23.792Z,23.00
2018-04-29T13:29:51.975Z,23.10
2018-04-29T13:32:20.118Z,23.10
2018-04-29T13:34:48.348Z,23.00
2018-04-29T13:37:16.734Z,23.10
2018-04-29T13:39:45.004Z,23.10
2018-04-29T13:42:13.290Z,23.00
2018-04-29T13:44:41.513Z,23.00
2018-04-29T13:47:09.660Z,22.90
2018-04-29T13:49:37.799Z,23.00
2018-04-29T13:52:06.057Z,23.10
2018-04-29T13:54:34.338Z,23.10
2018-04-29T13:57:02.554Z,23.30
2018-04-29T13:59:30.815Z,23.50
2018-04-29T14:01:59.272Z,23.50
2018-04-29T14:04:27.489Z,23.50
2018-04-29T14:06:55.941Z,23.50
2018-04-29T14:09:24.608Z,23.50
2018-04-29T14:11:52.834Z,23.50
2018-04-29T14:14:21.102Z,23.40
2018-04-29T14:16:49.986Z,23.50
2018-04-29T14:19:18.268Z,23.50
2018-04-29T14:21:46.683Z,23.50
2018-04-29T14:24:14.981Z,23.50
2018-04-29T14:26:43.336Z,23.50
2018-04-29T14:29:11.885Z,23.60
2018-04-29T14:31:40.182Z,23.60
2018-04-29T14:34:08.463Z,23.60
2018-04-29T14:36:36.926Z,23.60
2018-04-29T14:39:05.234Z,23.60
2018-04-29T14:41:33.459Z,23.50
2018-04-29T14:44:01.833Z,23.50
2018-04-29T14:46:30.190Z,23.40
2018-04-29T14:48:58.507Z,23.40
2018-04-29T14:51:26.914Z,23.40
2018-04-29T14:53:55.291Z,23.50
2018-04-29T14:56:23.598Z,23.60
2018-04-29T14:58:51.850Z,23.60
2018-04-29T15:01:20.195Z,23.50
2018-04-29T15:03:48.443Z,23.70
2018-04-29T15:06:16.935Z,23.60
2018-04-29T15:08:45.236Z,23.60
2018-04-29T15:11:13.497Z,23.40
2018-04-29T15:13:41.890Z,23.50
2018-04-29T15:16:10.166Z,23.40
2018-04-29T15:18:50.122Z,23.30
2018-04-29T15:21:18.312Z,23.30
2018-04-29T15:23:46.700Z,23.40
2018-04-29T15:26:14.931Z,23.50
2018-04-29T15:28:43.308Z,23.60
2018-04-29T15:31:11.676Z,23.70
2018-04-29T15:33:39.941Z,23.60
2018-04-29T15:36:08.748Z,23.70
2018-04-29T15:38:36.935Z,23.80
2018-04-29T15:41:05.079Z,23.90
2018-04-29T15:43:33.262Z,23.80
2018-04-29T15:46:01.522Z,23.90
2018-04-29T15:48:29.758Z,23.80
2018-04-29T15:50:58.066Z,23.60
2018-04-29T15:53:26.363Z,23.60
2018-04-29T15:55:54.589Z,23.80
2018-04-29T15:58:23.104Z,23.90
2018-04-29T16:00:51.715Z,23.90
2018-04-29T16:03:20.862Z,23.80
2018-04-29T16:05:49.521Z,23.80
2018-04-29T16:08:17.920Z,23.70
2018-04-29T16:10:46.333Z,23.70
2018-04-29T16:13:14.722Z,23.60
2018-04-29T16:15:43.303Z,23.60
2018-04-29T16:18:11.686Z,23.40
2018-04-29T16:20:40.105Z,23.20
2018-04-29T16:23:08.664Z,23.20
2018-04-29T16:25:37.085Z,23.00
2018-04-29T16:28:05.585Z,22.90
2018-04-29T16:30:33.888Z,22.80
2018-04-29T16:33:02.147Z,22.70
2018-04-29T16:35:30.704Z,22.60
2018-04-29T16:37:59.097Z,22.60
2018-04-29T16:40:27.491Z,22.60
2018-04-29T16:42:55.884Z,22.60
2018-04-29T16:45:24.384Z,22.50
2018-04-29T16:47:52.747Z,22.40
2018-04-29T16:50:21.201Z,22.30
2018-04-29T16:52:49.698Z,22.40
2018-04-29T16:55:18.127Z,22.40
2018-04-29T16:57:46.805Z,22.40
2018-04-29T17:00:15.136Z,22.30
2018-04-29T17:02:43.706Z,22.30
2018-04-29T17:05:12.249Z,22.10
2018-04-29T17:07:40.763Z,22.10
2018-04-29T17:10:09.585Z,22.10
2018-04-29T17:12:38.150Z,22.00
2018-04-29T17:15:06.596Z,22.00
2018-04-29T17:17:34.857Z,21.90
2018-04-29T17:20:03.891Z,22.00
2018-04-29T17:22:32.425Z,21.90
2018-04-29T17:25:01.189Z,21.90
2018-04-29T17:27:29.824Z,21.90
2018-04-29T17:29:58.617Z,21.80
2018-04-29T17:32:27.136Z,21.80
2018-04-29T17:34:55.878Z,21.80
2018-04-29T17:37:25.083Z,21.70
2018-04-29T17:39:54.491Z,21.60
2018-04-29T17:42:22.945Z,21.60
2018-04-29T17:44:51.703Z,21.50
2018-04-29T17:47:20.173Z,21.60
2018-04-29T17:49:48.643Z,21.60
2018-04-29T17:52:17.160Z,21.60
2018-04-29T17:54:46.008Z,21.60
2018-04-29T17:57:14.627Z,21.60
2018-04-29T17:59:44.832Z,21.60
2018-04-29T18:02:13.481Z,21.60
2018-04-29T18:04:42.256Z,21.60
2018-04-29T18:07:10.888Z,21.60
2018-04-29T18:09:39.617Z,21.50
2018-04-29T18:12:07.936Z,21.50
2018-04-29T18:14:36.364Z,21.40
2018-04-29T18:17:04.714Z,21.40
2018-04-29T18:19:33.101Z,21.50
2018-04-29T18:22:01.577Z,21.40
2018-04-29T18:24:29.933Z,21.40
2018-04-29T18:26:58.458Z,21.30
2018-04-29T18:29:26.942Z,21.20
2018-04-29T18:31:55.271Z,21.20
2018-04-29T18:34:23.399Z,21.10
2018-04-29T18:36:51.665Z,21.10
2018-04-29T18:39:19.909Z,21.00
2018-04-29T18:41:48.353Z,20.90
2018-04-29T18:44:16.523Z,20.80
2018-04-29T18:46:44.651Z,20.80
2018-04-29T18:49:12.770Z,20.70
2018-04-29T18:51:40.942Z,20.70
2018-04-29T18:54:08.992Z,20.70
2018-04-29T18:56:37.276Z,20.70
2018-04-29T18:59:05.353Z,20.70
2018-04-29T19:01:33.467Z,20.70
2018-04-29T19:04:01.566Z,20.70
2018-04-29T19:06:29.695Z,20.70
2018-04-29T19:08:57.793Z,20.60
2018-04-29T19:11:26.087Z,20.70
2018-04-29T19:13:54.204Z,20.70
2018-04-29T19:16:22.390Z,20.70
2018-04-29T19:18:50.516Z,20.70
2018-04-29T19:21:18.714Z,20.60
2018-04-29T19:23:46.810Z,20.60
2018-04-29T19:26:15.010Z,20.60
2018-04-29T19:28:43.203Z,20.50
2018-04-29T19:31:11.343Z,20.50
2018-04-29T19:33:39.648Z,20.50
2018-04-29T19:36:07.950Z,20.50
2018-04-29T19:38:36.160Z,20.50
2018-04-29T19:41:04.276Z,20.50
2018-04-29T19:43:32.406Z,20.50
2018-04-29T19:46:00.596Z,20.40
2018-04-29T19:48:28.747Z,20.40
2018-04-29T19:50:56.897Z,20.40
2018-04-29T19:53:25.022Z,20.40
2018-04-29T19:55:53.200Z,20.50
2018-04-29T19:58:21.361Z,20.40
2018-04-29T20:00:49.538Z,20.40
2018-04-29T20:03:17.705Z,20.40
2018-04-29T20:05:45.878Z,20.30
2018-04-29T20:08:14.067Z,20.20
2018-04-29T20:10:42.232Z,20.10
2018-04-29T20:13:10.468Z,20.00
2018-04-29T20:15:38.621Z,20.00
2018-04-29T20:18:06.773Z,19.90
2018-04-29T20:20:34.988Z,19.90
2018-04-29T20:23:03.188Z,19.80
2018-04-29T20:25:31.279Z,19.70
2018-04-29T20:27:59.395Z,19.70
2018-04-29T20:30:27.743Z,19.70
2018-04-29T20:32:55.915Z,19.70
2018-04-29T20:35:24.082Z,19.70
2018-04-29T20:37:52.332Z,19.70
2018-04-29T20:40:20.670Z,19.60
2018-04-29T20:42:48.814Z,19.60
2018-04-29T20:45:16.951Z,19.50
2018-04-29T20:47:45.087Z,19.40
2018-04-29T20:50:13.253Z,19.30
2018-04-29T20:52:41.384Z,19.30
2018-04-29T20:55:09.506Z,19.20
2018-04-29T20:57:37.643Z,19.20
2018-04-29T21:00:05.766Z,19.10
2018-04-29T21:02:33.902Z,19.10
2018-04-29T21:05:02.057Z,19.00
2018-04-29T21:07:30.209Z,18.90
2018-04-29T21:09:58.369Z,19.00
2018-04-29T21:12:26.566Z,18.90
2018-04-29T21:14:54.863Z,18.90
2018-04-29T21:17:23.110Z,18.90
2018-04-29T21:19:51.298Z,18.80
2018-04-29T21:22:19.613Z,18.90
2018-04-29T21:24:47.733Z,18.90
2018-04-29T21:27:15.868Z,18.90
2018-04-29T21:29:44.053Z,18.80
2018-04-29T21:32:12.207Z,18.90
2018-04-29T21:34:40.526Z,18.80
2018-04-29T21:37:08.734Z,18.80
2018-04-29T21:39:36.942Z,18.80
2018-04-29T21:42:05.153Z,18.70
2018-04-29T21:44:33.302Z,18.70
2018-04-29T21:47:01.797Z,18.70
2018-04-29T21:49:30.559Z,18.70
2018-04-29T21:51:58.694Z,18.70
2018-04-29T21:54:26.830Z,18.60
2018-04-29T21:56:55.008Z,18.60
2018-04-29T21:59:23.393Z,18.60
2018-04-29T22:01:51.609Z,18.60
2018-04-29T22:04:19.899Z,18.50
2018-04-29T22:06:47.976Z,18.40
2018-04-29T22:09:16.176Z,18.40
2018-04-29T22:11:44.282Z,18.40
2018-04-29T22:14:12.404Z,18.40
2018-04-29T22:16:40.556Z,18.40
2018-04-29T22:19:08.678Z,18.30
2018-04-29T22:21:37.050Z,18.30
2018-04-29T22:24:05.129Z,18.20
2018-04-29T22:26:33.406Z,18.20
2018-04-29T22:29:01.668Z,18.10
2018-04-29T22:31:29.890Z,18.10
2018-04-29T22:33:58.005Z,18.10
2018-04-29T22:36:26.310Z,18.10
2018-04-29T22:38:54.462Z,18.00
2018-04-29T22:41:23.562Z,18.00
2018-04-29T22:43:51.706Z,18.00
2018-04-29T22:46:19.833Z,18.00
2018-04-29T22:48:48.033Z,18.00
2018-04-29T22:51:16.214Z,17.90
2018-04-29T22:53:44.446Z,17.90
2018-04-29T22:56:12.641Z,17.90
2018-04-29T22:58:40.776Z,18.00
2018-04-29T23:01:08.886Z,17.90
2018-04-29T23:03:37.046Z,17.90
2018-04-29T23:06:05.149Z,17.90
2018-04-29T23:08:33.295Z,17.90
2018-04-29T23:11:01.436Z,17.90
2018-04-29T23:13:29.533Z,17.90
2018-04-29T23:15:57.658Z,17.90
2018-04-29T23:18:25.847Z,17.80
2018-04-29T23:20:54.087Z,17.80
2018-04-29T23:23:22.171Z,17.80
2018-04-29T23:25:50.307Z,17.80
2018-04-29T23:28:18.415Z,17.80
2018-04-29T23:30:46.635Z,17.70
2018-04-29T23:33:14.756Z,17.70
2018-04-29T23:35:43.120Z,17.70
2018-04-29T23:38:11.385Z,17.70
2018-04-29T23:40:39.470Z,17.70
2018-04-29T23:43:07.632Z,17.70
2018-04-29T23:45:35.797Z,17.70
2018-04-29T23:48:03.934Z,17.60
2018-04-29T23:50:32.021Z,17.60
2018-04-29T23:53:00.178Z,17.60
2018-04-29T23:55:28.389Z,17.60
2018-04-29T23:57:56.591Z,17.60
